createdAt,value
2022-12-26T00:00:12.143Z,17.80
2022-12-26T00:02:43.192Z,17.50
2022-12-26T00:05:15.546Z,17.10
2022-12-26T00:07:46.834Z,17.60
2022-12-26T00:10:17.806Z,17.60
2022-12-26T00:12:48.675Z,17.10
2022-12-26T00:15:19.607Z,17.40
2022-12-26T00:17:50.442Z,17.50
2022-12-26T00:20:21.541Z,17.50
2022-12-26T00:22:54.856Z,17.60
2022-12-26T00:25:26.135Z,17.70
2022-12-26T00:27:57.263Z,17.40
2022-12-26T00:30:28.321Z,17.20
2022-12-26T00:32:59.264Z,17.30
2022-12-26T00:35:30.632Z,17.60
2022-12-26T00:38:01.505Z,17.80
2022-12-26T00:40:32.389Z,17.90
2022-12-26T00:43:03.256Z,17.80
2022-12-26T00:45:34.152Z,17.50
2022-12-26T00:48:05.317Z,17.50
2022-12-26T00:50:36.208Z,17.10
2022-12-26T00:53:07.173Z,17.40
2022-12-26T00:55:38.184Z,17.40
2022-12-26T00:58:09.124Z,17.60
2022-12-26T01:00:40.135Z,17.00
2022-12-26T01:03:12.452Z,17.20
2022-12-26T01:05:51.852Z,17.50
2022-12-26T01:08:24.962Z,17.70
2022-12-26T01:10:56.113Z,17.60
2022-12-26T01:13:27.005Z,17.30
2022-12-26T01:15:58.094Z,17.70
2022-12-26T01:18:29.791Z,17.50
2022-12-26T01:21:07.492Z,17.20
2022-12-26T01:23:38.430Z,17.20
2022-12-26T01:26:17.793Z,17.10
2022-12-26T01:28:53.062Z,17.00
2022-12-26T01:31:24.591Z,17.30
2022-12-26T01:33:55.486Z,17.10
2022-12-26T01:36:26.366Z,17.10
2022-12-26T01:38:57.242Z,17.20
2022-12-26T01:41:28.129Z,16.90
2022-12-26T01:44:00.647Z,17.10
2022-12-26T01:46:44.599Z,17.20
2022-12-26T01:49:31.763Z,16.90
2022-12-26T01:52:09.901Z,17.20
2022-12-26T01:54:44.999Z,16.90
2022-12-26T01:57:30.648Z,17.20
2022-12-26T02:00:03.978Z,17.40
2022-12-26T02:02:55.148Z,17.10
2022-12-26T02:05:35.781Z,17.40
2022-12-26T02:08:12.183Z,17.30
2022-12-26T02:10:59.211Z,17.30
2022-12-26T02:13:31.801Z,17.30
2022-12-26T02:16:08.460Z,17.30
2022-12-26T02:18:39.721Z,17.30
2022-12-26T02:21:32.164Z,17.10
2022-12-26T02:24:26.839Z,17.10
2022-12-26T02:27:00.775Z,16.80
2022-12-26T02:30:05.082Z,17.00
2022-12-26T02:33:16.534Z,16.90
2022-12-26T02:36:13.920Z,17.00
2022-12-26T02:38:56.686Z,17.00
2022-12-26T02:41:33.366Z,16.80
2022-12-26T02:44:43.755Z,16.80
2022-12-26T02:47:30.493Z,17.10
2022-12-26T02:50:32.932Z,17.10
2022-12-26T02:53:50.408Z,16.60
2022-12-26T02:57:08.402Z,17.00
2022-12-26T03:00:25.816Z,17.20
2022-12-26T03:03:38.665Z,16.90
2022-12-26T03:06:34.404Z,17.60
2022-12-26T03:09:35.130Z,17.30
2022-12-26T03:12:58.752Z,17.50
2022-12-26T03:15:52.501Z,17.50
2022-12-26T03:18:57.847Z,18.00
2022-12-26T03:21:23.431Z,17.80
2022-12-26T03:23:56.875Z,17.60
2022-12-26T03:26:41.480Z,17.60
2022-12-26T03:29:37.934Z,17.80
2022-12-26T03:32:13.205Z,17.00
2022-12-26T03:34:45.233Z,17.80
2022-12-26T03:37:49.075Z,17.40
2022-12-26T03:40:51.183Z,17.80
2022-12-26T03:44:08.945Z,17.80
2022-12-26T03:47:38.889Z,17.70
2022-12-26T03:50:52.440Z,17.50
2022-12-26T03:53:47.743Z,17.40
2022-12-26T03:56:44.661Z,17.70
2022-12-26T03:59:44.306Z,17.90
2022-12-26T04:02:35.802Z,18.00
2022-12-26T04:05:27.564Z,18.00
2022-12-26T04:08:21.919Z,18.20
2022-12-26T04:11:17.735Z,17.90
2022-12-26T04:14:54.661Z,18.00
2022-12-26T04:18:15.120Z,18.00
2022-12-26T04:21:34.549Z,17.50
2022-12-26T04:24:45.082Z,17.80
2022-12-26T04:27:38.026Z,18.00
2022-12-26T04:30:28.280Z,18.00
2022-12-26T04:33:44.247Z,18.00
2022-12-26T04:36:51.354Z,17.70
2022-12-26T04:39:48.087Z,17.80
2022-12-26T04:42:39.875Z,17.60
2022-12-26T04:45:11.638Z,17.50
2022-12-26T04:48:02.588Z,17.70
2022-12-26T04:50:33.482Z,17.60
2022-12-26T04:53:04.467Z,17.80
2022-12-26T04:55:36.349Z,17.90
2022-12-26T04:58:07.227Z,17.80
2022-12-26T05:00:38.219Z,17.70
2022-12-26T05:03:32.511Z,17.70
2022-12-26T05:06:22.380Z,17.80
2022-12-26T05:09:12.208Z,18.10
2022-12-26T05:11:47.267Z,18.10
2022-12-26T05:14:18.309Z,17.90
2022-12-26T05:17:07.952Z,17.80
2022-12-26T05:19:57.026Z,18.10
2022-12-26T05:22:51.018Z,18.00
2022-12-26T05:25:50.018Z,18.00
2022-12-26T05:28:40.135Z,17.90
2022-12-26T05:31:17.352Z,18.10
2022-12-26T05:34:07.241Z,18.10
2022-12-26T05:36:46.503Z,17.90
2022-12-26T05:39:18.058Z,18.20
2022-12-26T05:41:49.080Z,18.20
2022-12-26T05:44:19.947Z,18.20
2022-12-26T05:46:50.970Z,18.10
2022-12-26T05:49:21.882Z,18.00
2022-12-26T05:51:52.759Z,18.00
2022-12-26T05:54:23.635Z,18.00
2022-12-26T05:56:54.529Z,18.10
2022-12-26T05:59:25.516Z,18.10
2022-12-26T06:01:56.525Z,18.20
2022-12-26T06:04:27.611Z,18.30
2022-12-26T06:06:58.484Z,18.40
2022-12-26T06:09:29.437Z,18.20
2022-12-26T06:12:00.392Z,18.40
2022-12-26T06:14:31.247Z,18.00
2022-12-26T06:17:02.336Z,17.90
2022-12-26T06:19:33.201Z,17.90
2022-12-26T06:22:04.139Z,17.90
2022-12-26T06:24:35.128Z,18.00
2022-12-26T06:27:06.106Z,18.10
2022-12-26T06:29:40.174Z,18.00
2022-12-26T06:32:11.069Z,18.10
2022-12-26T06:34:41.931Z,18.10
2022-12-26T06:37:12.871Z,17.70
2022-12-26T06:39:43.733Z,18.10
2022-12-26T06:42:14.624Z,18.00
2022-12-26T06:44:45.503Z,18.20
2022-12-26T06:47:16.527Z,17.90
2022-12-26T06:49:47.531Z,18.00
2022-12-26T06:52:18.398Z,18.10
2022-12-26T06:54:49.276Z,17.90
2022-12-26T06:57:20.270Z,18.10
2022-12-26T06:59:51.131Z,18.20
2022-12-26T07:02:23.426Z,18.10
2022-12-26T07:04:54.450Z,18.20
2022-12-26T07:07:25.387Z,18.10
2022-12-26T07:09:57.140Z,17.90
2022-12-26T07:12:28.051Z,17.60
2022-12-26T07:15:01.563Z,17.90
2022-12-26T07:17:33.023Z,17.80
2022-12-26T07:20:05.435Z,18.00
2022-12-26T07:22:36.312Z,17.90
2022-12-26T07:25:07.885Z,17.80
2022-12-26T07:27:38.775Z,17.60
2022-12-26T07:30:10.537Z,17.90
2022-12-26T07:32:41.589Z,17.80
2022-12-26T07:35:12.485Z,17.90
2022-12-26T07:37:43.347Z,18.10
2022-12-26T07:40:14.393Z,18.00
2022-12-26T07:42:45.241Z,17.80
2022-12-26T07:45:16.265Z,17.60
2022-12-26T07:47:47.135Z,17.90
2022-12-26T07:50:18.030Z,17.70
2022-12-26T07:52:48.918Z,17.80
2022-12-26T07:55:20.418Z,17.80
2022-12-26T07:57:52.629Z,17.70
2022-12-26T08:00:23.617Z,18.10
2022-12-26T08:02:54.697Z,18.00
2022-12-26T08:05:25.665Z,17.60
2022-12-26T08:07:56.694Z,17.80
2022-12-26T08:10:27.706Z,17.50
2022-12-26T08:12:58.693Z,17.60
2022-12-26T08:15:29.590Z,17.60
2022-12-26T08:18:00.465Z,17.40
2022-12-26T08:20:31.761Z,17.30
2022-12-26T08:23:02.604Z,17.20
2022-12-26T08:25:33.495Z,17.30
2022-12-26T08:28:04.686Z,17.40
2022-12-26T08:30:35.754Z,17.30
2022-12-26T08:33:07.299Z,17.40
2022-12-26T08:35:39.468Z,17.30
2022-12-26T08:38:10.362Z,17.30
2022-12-26T08:40:43.979Z,17.20
2022-12-26T08:43:44.966Z,17.20
2022-12-26T08:46:10.301Z,17.10
2022-12-26T08:48:42.069Z,17.40
2022-12-26T08:51:23.794Z,17.50
2022-12-26T08:53:55.690Z,17.30
2022-12-26T08:56:28.884Z,17.40
2022-12-26T08:58:59.739Z,17.50
2022-12-26T09:01:32.153Z,17.40
2022-12-26T09:04:04.674Z,17.70
2022-12-26T09:06:38.672Z,17.40
2022-12-26T09:09:11.604Z,17.30
2022-12-26T09:11:43.104Z,17.50
2022-12-26T09:14:14.045Z,17.40
2022-12-26T09:16:50.327Z,17.90
2022-12-26T09:19:22.687Z,17.50
2022-12-26T09:22:13.527Z,17.20
2022-12-26T09:24:44.451Z,17.30
2022-12-26T09:27:15.365Z,17.20
2022-12-26T09:29:48.555Z,17.10
2022-12-26T09:32:19.468Z,17.50
2022-12-26T09:34:50.307Z,17.40
2022-12-26T09:37:21.237Z,17.20
2022-12-26T09:39:52.156Z,17.10
2022-12-26T09:42:53.440Z,17.00
2022-12-26T09:46:07.441Z,16.90
2022-12-26T09:48:58.824Z,16.90
2022-12-26T09:51:33.625Z,17.00
2022-12-26T09:54:09.957Z,16.80
2022-12-26T09:59:52.492Z,17.00
2022-12-26T10:02:26.507Z,17.30
2022-12-26T10:04:57.575Z,18.30
2022-12-26T10:07:44.309Z,18.80
2022-12-26T10:10:38.893Z,18.80
2022-12-26T10:13:22.360Z,19.10
2022-12-26T10:16:32.160Z,18.50
2022-12-26T10:19:33.100Z,18.00
2022-12-26T10:22:33.571Z,18.50
2022-12-26T10:25:30.340Z,18.00
2022-12-26T10:28:15.188Z,18.30
2022-12-26T10:30:47.726Z,18.30
2022-12-26T10:33:36.771Z,18.00
2022-12-26T10:36:27.668Z,17.70
2022-12-26T10:39:01.637Z,17.90
2022-12-26T10:41:47.461Z,18.30
2022-12-26T10:44:21.350Z,18.10
2022-12-26T10:47:21.222Z,18.60
2022-12-26T10:49:52.477Z,18.30
2022-12-26T10:52:32.312Z,17.90
2022-12-26T10:55:28.554Z,18.30
2022-12-26T10:57:55.166Z,18.20
2022-12-26T11:00:28.540Z,18.40
2022-12-26T11:03:13.321Z,19.20
2022-12-26T11:06:10.129Z,19.30
2022-12-26T11:08:49.659Z,19.60
2022-12-26T11:11:27.226Z,19.70
2022-12-26T11:14:02.536Z,19.90
2022-12-26T11:16:37.893Z,20.30
2022-12-26T11:19:33.180Z,19.90
2022-12-26T11:22:25.410Z,19.30
2022-12-26T11:25:30.465Z,18.60
2022-12-26T11:28:25.509Z,18.20
2022-12-26T11:30:57.693Z,17.60
2022-12-26T11:33:34.300Z,17.80
2022-12-26T11:36:23.472Z,17.90
2022-12-26T11:39:00.314Z,17.90
2022-12-26T11:41:40.339Z,18.00
2022-12-26T11:44:28.613Z,18.10
2022-12-26T11:47:12.871Z,17.90
2022-12-26T11:50:10.468Z,17.70
2022-12-26T11:52:56.416Z,18.00
2022-12-26T11:55:35.591Z,18.10
2022-12-26T11:58:09.638Z,18.00
2022-12-26T12:01:05.791Z,17.90
2022-12-26T12:03:49.299Z,17.80
2022-12-26T12:06:58.610Z,17.50
2022-12-26T12:09:45.440Z,17.80
2022-12-26T12:12:40.261Z,18.10
2022-12-26T12:15:25.548Z,17.80
2022-12-26T12:18:31.666Z,17.50
2022-12-26T12:21:29.738Z,17.70
2022-12-26T12:24:48.853Z,18.10
2022-12-26T12:27:47.588Z,17.80
2022-12-26T12:30:29.232Z,18.10
2022-12-26T12:33:38.826Z,18.10
2022-12-26T12:36:12.979Z,17.80
2022-12-26T12:39:06.025Z,17.20
2022-12-26T12:42:34.947Z,16.90
2022-12-26T12:45:33.526Z,17.30
2022-12-26T12:48:19.292Z,17.70
2022-12-26T12:51:20.545Z,18.00
2022-12-26T12:54:21.357Z,17.70
2022-12-26T12:57:30.442Z,17.40
2022-12-26T13:00:18.191Z,17.00
2022-12-26T13:03:02.638Z,17.40
2022-12-26T13:06:07.066Z,17.10
2022-12-26T13:08:54.488Z,17.10
2022-12-26T13:11:38.068Z,17.00
2022-12-26T13:14:49.440Z,17.80
2022-12-26T13:17:46.483Z,17.00
2022-12-26T13:20:33.208Z,16.90
2022-12-26T13:23:38.298Z,17.00
2022-12-26T13:26:21.011Z,17.20
2022-12-26T13:29:17.749Z,17.00
2022-12-26T13:31:48.779Z,17.10
2022-12-26T13:34:21.557Z,17.50
2022-12-26T13:36:58.452Z,17.60
2022-12-26T13:39:35.900Z,17.70
2022-12-26T13:42:28.027Z,18.00
2022-12-26T13:45:37.437Z,17.70
2022-12-26T13:48:36.994Z,17.60
2022-12-26T13:51:49.321Z,18.10
2022-12-26T13:54:22.643Z,17.70
2022-12-26T13:57:25.610Z,17.60
2022-12-26T14:00:24.040Z,17.70
2022-12-26T14:03:42.707Z,17.70
2022-12-26T14:06:44.446Z,17.10
2022-12-26T14:09:40.340Z,17.30
2022-12-26T14:12:35.946Z,17.80
2022-12-26T14:15:22.258Z,18.10
2022-12-26T14:18:30.168Z,17.70
2022-12-26T14:21:46.861Z,17.70
2022-12-26T14:24:32.313Z,18.00
2022-12-26T14:27:50.329Z,17.60
2022-12-26T14:30:27.395Z,18.10
2022-12-26T14:33:29.023Z,17.50
2022-12-26T14:36:19.400Z,17.10
2022-12-26T14:39:13.206Z,17.60
2022-12-26T14:42:24.508Z,17.90
2022-12-26T14:44:58.570Z,17.90
2022-12-26T14:47:49.942Z,17.90
2022-12-26T14:50:32.973Z,17.90
2022-12-26T14:53:28.734Z,17.70
2022-12-26T14:56:27.154Z,17.70
2022-12-26T14:59:34.817Z,18.00
2022-12-26T15:02:34.478Z,18.20
2022-12-26T15:05:11.856Z,17.80
2022-12-26T15:08:20.466Z,18.00
2022-12-26T15:11:19.344Z,17.90
2022-12-26T15:14:14.235Z,17.90
2022-12-26T15:17:09.119Z,17.60
2022-12-26T15:20:20.011Z,17.60
2022-12-26T15:23:17.069Z,17.90
2022-12-26T15:26:31.001Z,17.80
2022-12-26T15:29:29.793Z,17.70
2022-12-26T15:32:19.496Z,17.30
2022-12-26T15:35:01.829Z,17.30
2022-12-26T15:38:00.401Z,17.90
2022-12-26T15:40:37.831Z,17.70
2022-12-26T15:43:23.499Z,17.80
2022-12-26T15:46:22.271Z,17.10
2022-12-26T15:49:23.812Z,17.30
2022-12-26T15:52:44.752Z,17.60
2022-12-26T15:55:18.680Z,17.80
2022-12-26T15:57:54.423Z,17.90
2022-12-26T16:00:31.001Z,17.60
2022-12-26T16:03:19.815Z,17.60
2022-12-26T16:06:32.494Z,17.90
2022-12-26T16:09:22.105Z,17.90
2022-12-26T16:11:57.192Z,17.60
2022-12-26T16:14:39.741Z,17.00
2022-12-26T16:17:18.020Z,17.50
2022-12-26T16:19:52.229Z,17.20
2022-12-26T16:22:47.299Z,17.10
2022-12-26T16:25:25.365Z,17.60
2022-12-26T16:27:58.832Z,16.90
2022-12-26T16:30:36.958Z,17.20
2022-12-26T16:33:08.265Z,17.50
2022-12-26T16:35:42.114Z,16.50
2022-12-26T16:38:18.474Z,17.20
2022-12-26T16:40:51.597Z,17.60
2022-12-26T16:43:29.132Z,17.80
2022-12-26T16:46:03.734Z,17.70
2022-12-26T16:48:36.873Z,17.80
2022-12-26T16:51:42.715Z,17.80
2022-12-26T16:54:22.675Z,17.50
2022-12-26T16:57:08.221Z,17.50
2022-12-26T16:59:52.946Z,17.30
2022-12-26T17:02:32.010Z,17.50
2022-12-26T17:05:15.868Z,17.60
2022-12-26T17:07:49.921Z,17.20
2022-12-26T17:10:34.068Z,17.70
2022-12-26T17:13:09.605Z,17.80
2022-12-26T17:15:54.293Z,17.50
2022-12-26T17:18:39.879Z,17.60
2022-12-26T17:21:29.277Z,17.60
2022-12-26T17:24:26.167Z,17.50
2022-12-26T17:27:26.481Z,17.50
2022-12-26T17:30:19.971Z,17.50
2022-12-26T17:32:50.941Z,17.60
2022-12-26T17:35:27.125Z,17.50
2022-12-26T17:38:04.396Z,17.40
2022-12-26T17:40:41.011Z,17.20
2022-12-26T17:43:11.819Z,17.10
2022-12-26T17:45:46.827Z,17.00
2022-12-26T17:48:18.220Z,17.10
2022-12-26T17:50:55.232Z,17.10
2022-12-26T17:53:38.198Z,17.60
2022-12-26T17:56:16.925Z,17.30
2022-12-26T17:58:49.555Z,16.80
2022-12-26T18:01:22.212Z,16.90
2022-12-26T18:03:53.433Z,16.70
2022-12-26T18:06:24.571Z,16.90
2022-12-26T18:08:55.442Z,17.00
2022-12-26T18:11:26.295Z,16.40
2022-12-26T18:13:57.140Z,16.60
2022-12-26T18:16:29.650Z,16.10
2022-12-26T18:19:01.608Z,15.70
2022-12-26T18:21:32.509Z,16.20
2022-12-26T18:24:03.529Z,16.40
2022-12-26T18:26:35.400Z,15.80
2022-12-26T18:29:06.358Z,15.30
2022-12-26T18:31:37.712Z,15.30
2022-12-26T18:34:08.683Z,15.10
2022-12-26T18:36:42.214Z,14.60
2022-12-26T18:39:17.054Z,14.80
2022-12-26T18:41:47.945Z,14.00
2022-12-26T18:44:20.558Z,14.10
2022-12-26T18:46:51.906Z,13.80
2022-12-26T18:49:22.797Z,14.30
2022-12-26T18:51:53.665Z,13.50
2022-12-26T18:54:24.643Z,13.70
2022-12-26T18:56:55.581Z,13.50
2022-12-26T18:59:26.487Z,13.90
2022-12-26T19:01:57.413Z,13.50
2022-12-26T19:04:28.405Z,13.30
2022-12-26T19:06:59.297Z,13.40
2022-12-26T19:09:30.150Z,13.60
2022-12-26T19:12:01.069Z,13.30
2022-12-26T19:14:31.943Z,13.30
2022-12-26T19:17:02.919Z,13.30
2022-12-26T19:19:33.861Z,13.40
2022-12-26T19:22:04.832Z,13.60
2022-12-26T19:24:36.570Z,14.30
2022-12-26T19:27:07.623Z,14.70
2022-12-26T19:29:38.600Z,14.00
2022-12-26T19:32:09.561Z,14.00
2022-12-26T19:34:40.448Z,14.10
2022-12-26T19:37:11.326Z,14.30
2022-12-26T19:39:42.222Z,14.80
2022-12-26T19:42:13.089Z,14.10
2022-12-26T19:44:44.624Z,13.70
2022-12-26T19:47:15.691Z,14.00
2022-12-26T19:49:46.566Z,14.20
2022-12-26T19:52:17.829Z,14.00
2022-12-26T19:54:48.694Z,13.80
2022-12-26T19:57:19.793Z,13.70
2022-12-26T19:59:51.167Z,13.60
2022-12-26T20:02:24.885Z,13.70
2022-12-26T20:04:55.873Z,13.70
2022-12-26T20:07:26.760Z,13.80
2022-12-26T20:09:57.593Z,13.90
2022-12-26T20:12:28.494Z,14.10
2022-12-26T20:14:59.434Z,13.90
2022-12-26T20:17:30.370Z,13.80
2022-12-26T20:20:01.252Z,13.50
2022-12-26T20:22:32.113Z,13.50
2022-12-26T20:25:04.140Z,13.70
2022-12-26T20:27:35.274Z,13.50
2022-12-26T20:30:07.532Z,13.80
2022-12-26T20:32:38.436Z,14.60
2022-12-26T20:35:09.825Z,14.50
2022-12-26T20:37:40.694Z,14.00
2022-12-26T20:40:12.154Z,13.70
2022-12-26T20:42:42.981Z,13.90
2022-12-26T20:45:13.893Z,13.90
2022-12-26T20:47:44.811Z,14.20
2022-12-26T20:50:17.536Z,13.80
2022-12-26T20:52:48.392Z,14.20
2022-12-26T20:55:19.345Z,14.10
2022-12-26T20:57:50.243Z,14.10
2022-12-26T21:00:21.273Z,14.50
2022-12-26T21:02:53.369Z,14.90
2022-12-26T21:05:25.435Z,14.20
2022-12-26T21:07:56.291Z,14.10
2022-12-26T21:10:27.195Z,13.40
2022-12-26T21:12:58.345Z,13.80
2022-12-26T21:15:29.284Z,13.30
2022-12-26T21:18:00.150Z,13.40
2022-12-26T21:20:31.679Z,13.30
2022-12-26T21:23:02.555Z,13.30
2022-12-26T21:25:33.771Z,13.30
2022-12-26T21:28:04.871Z,13.30
2022-12-26T21:30:35.789Z,13.50
2022-12-26T21:33:06.685Z,13.60
2022-12-26T21:35:38.186Z,13.90
2022-12-26T21:38:09.090Z,13.80
2022-12-26T21:40:43.856Z,13.80
2022-12-26T21:43:14.879Z,13.80
2022-12-26T21:45:45.908Z,13.60
2022-12-26T21:48:16.988Z,13.40
2022-12-26T21:50:47.848Z,13.70
2022-12-26T21:53:18.746Z,13.60
2022-12-26T21:55:49.648Z,12.90
2022-12-26T21:58:20.484Z,13.70
2022-12-26T22:00:51.393Z,13.10
2022-12-26T22:03:40.725Z,13.10
2022-12-26T22:06:20.695Z,13.40
2022-12-26T22:08:52.030Z,12.90
2022-12-26T22:11:48.986Z,12.80
2022-12-26T22:14:20.059Z,12.80
2022-12-26T22:16:55.320Z,13.20
2022-12-26T22:19:26.571Z,12.90
2022-12-26T22:21:57.575Z,13.00
2022-12-26T22:24:30.257Z,12.80
2022-12-26T22:27:01.143Z,12.90
2022-12-26T22:29:32.036Z,13.00
2022-12-26T22:32:03.018Z,13.00
2022-12-26T22:34:33.894Z,12.90
2022-12-26T22:37:04.879Z,13.00
2022-12-26T22:39:35.792Z,13.10
2022-12-26T22:42:06.672Z,12.80
2022-12-26T22:44:37.550Z,13.10
2022-12-26T22:47:08.418Z,12.80
2022-12-26T22:49:39.255Z,12.90
2022-12-26T22:52:15.645Z,13.00
2022-12-26T22:54:46.966Z,13.20
2022-12-26T22:57:17.859Z,13.10
2022-12-26T23:02:39.809Z,13.00
2022-12-26T23:05:12.607Z,13.10
2022-12-26T23:07:43.809Z,13.50
2022-12-26T23:10:23.035Z,12.90
2022-12-26T23:12:54.542Z,13.00
2022-12-26T23:15:27.891Z,12.80
2022-12-26T23:18:43.103Z,13.10
2022-12-26T23:21:48.716Z,12.80
2022-12-26T23:24:26.393Z,12.70
2022-12-26T23:27:22.738Z,12.50
2022-12-26T23:30:13.312Z,12.50
2022-12-26T23:32:50.313Z,12.50
2022-12-26T23:35:22.818Z,13.20
2022-12-26T23:37:54.581Z,12.50
2022-12-26T23:40:25.533Z,12.80
2022-12-26T23:42:56.379Z,12.60
2022-12-26T23:45:27.282Z,12.30
2022-12-26T23:47:58.183Z,12.50
2022-12-26T23:50:29.142Z,12.30
2022-12-26T23:52:59.993Z,12.70
2022-12-26T23:55:30.931Z,13.00
2022-12-26T23:58:01.933Z,12.50
